sensor_id;sensor_type;location;lat;lon;timestamp;P1;durP1;ratioP1;P2;durP2;ratioP2
52342;SDS011;38277;51.972;4.624;2022-11-27T00:00:35;17.0;;;5.2;;
52342;SDS011;38277;51.972;4.624;2022-11-27T00:05:49;17.5;;;5.4;;
52342;SDS011;38277;51.972;4.624;2022-11-27T00:09:22;14.4;;;5.3;;
52342;SDS011;38277;51.972;4.624;2022-11-27T00:14:30;14.8;;;5.7;;
52342;SDS011;38277;51.972;4.624;2022-11-27T00:18:17;12.4;;;5.1;;
52342;SDS011;38277;51.972;4.624;2022-11-27T00:23:12;13.2;;;5.1;;
52342;SDS011;38277;51.972;4.624;2022-11-27T00:27:42;15.1;;;6.1;;
52342;SDS011;38277;51.972;4.624;2022-11-27T00:36:41;18.2;;;5.7;;
52342;SDS011;38277;51.972;4.624;2022-11-27T00:41:04;19.5;;;5.3;;
52342;SDS011;38277;51.972;4.624;2022-11-27T00:45:15;12.9;;;5.3;;
52342;SDS011;38277;51.972;4.624;2022-11-27T00:50:06;14.2;;;5.7;;
52342;SDS011;38277;51.972;4.624;2022-11-27T00:54:39;16.5;;;5.9;;
52342;SDS011;38277;51.972;4.624;2022-11-27T00:59:07;17.3;;;6.0;;
52342;SDS011;38277;51.972;4.624;2022-11-27T01:03:17;14.9;;;5.2;;
52342;SDS011;38277;51.972;4.624;2022-11-27T01:12:33;15.4;;;5.7;;
52342;SDS011;38277;51.972;4.624;2022-11-27T01:17:07;15.4;;;4.8;;
52342;SDS011;38277;51.972;4.624;2022-11-27T01:21:33;13.3;;;5.0;;
52342;SDS011;38277;51.972;4.624;2022-11-27T01:26:05;14.6;;;5.8;;
52342;SDS011;38277;51.972;4.624;2022-11-27T01:30:36;17.0;;;4.8;;
52342;SDS011;38277;51.972;4.624;2022-11-27T01:34:44;15.4;;;5.7;;
52342;SDS011;38277;51.972;4.624;2022-11-27T01:39:24;10.5;;;3.9;;
52342;SDS011;38277;51.972;4.624;2022-11-27T01:48:39;14.1;;;5.1;;
52342;SDS011;38277;51.972;4.624;2022-11-27T01:53:03;14.8;;;4.6;;
52342;SDS011;38277;51.972;4.624;2022-11-27T01:57:40;21.1;;;4.6;;
52342;SDS011;38277;51.972;4.624;2022-11-27T02:02:00;13.3;;;4.3;;
52342;SDS011;38277;51.972;4.624;2022-11-27T02:06:20;15.4;;;4.9;;
52342;SDS011;38277;51.972;4.624;2022-11-27T02:11:01;13.9;;;4.5;;
52342;SDS011;38277;51.972;4.624;2022-11-27T02:15:49;14.6;;;5.3;;
52342;SDS011;38277;51.972;4.624;2022-11-27T02:20:22;17.9;;;5.6;;
52342;SDS011;38277;51.972;4.624;2022-11-27T02:25:40;15.6;;;4.5;;
52342;SDS011;38277;51.972;4.624;2022-11-27T02:28:58;12.1;;;3.8;;
52342;SDS011;38277;51.972;4.624;2022-11-27T02:33:42;15.2;;;5.4;;
52342;SDS011;38277;51.972;4.624;2022-11-27T02:37:59;11.4;;;4.5;;
52342;SDS011;38277;51.972;4.624;2022-11-27T02:42:22;15.1;;;4.6;;
52342;SDS011;38277;51.972;4.624;2022-11-27T02:46:59;16.7;;;4.7;;
52342;SDS011;38277;51.972;4.624;2022-11-27T02:51:29;13.5;;;4.2;;
52342;SDS011;38277;51.972;4.624;2022-11-27T03:04:57;17.7;;;5.1;;
52342;SDS011;38277;51.972;4.624;2022-11-27T03:18:54;10.4;;;4.1;;
52342;SDS011;38277;51.972;4.624;2022-11-27T03:22:54;12.6;;;4.5;;
52342;SDS011;38277;51.972;4.624;2022-11-27T03:27:29;10.2;;;3.6;;
52342;SDS011;38277;51.972;4.624;2022-11-27T03:36:20;15.3;;;4.5;;
52342;SDS011;38277;51.972;4.624;2022-11-27T03:40:53;13.9;;;4.4;;
52342;SDS011;38277;51.972;4.624;2022-11-27T03:46:08;9.3;;;4.5;;
52342;SDS011;38277;51.972;4.624;2022-11-27T03:50:34;11.5;;;3.8;;
52342;SDS011;38277;51.972;4.624;2022-11-27T03:55:08;9.8;;;3.6;;
52342;SDS011;38277;51.972;4.624;2022-11-27T03:58:51;17.3;;;3.7;;
52342;SDS011;38277;51.972;4.624;2022-11-27T04:04:28;11.6;;;4.3;;
52342;SDS011;38277;51.972;4.624;2022-11-27T04:09:15;11.0;;;3.6;;
52342;SDS011;38277;51.972;4.624;2022-11-27T04:12:15;12.6;;;3.9;;
52342;SDS011;38277;51.972;4.624;2022-11-27T04:16:50;14.3;;;4.2;;
52342;SDS011;38277;51.972;4.624;2022-11-27T04:22:16;14.3;;;3.5;;
52342;SDS011;38277;51.972;4.624;2022-11-27T04:25:46;8.9;;;3.3;;
52342;SDS011;38277;51.972;4.624;2022-11-27T04:30:19;10.2;;;3.2;;
52342;SDS011;38277;51.972;4.624;2022-11-27T04:35:02;11.7;;;3.4;;
52342;SDS011;38277;51.972;4.624;2022-11-27T04:40:16;14.1;;;3.5;;
52342;SDS011;38277;51.972;4.624;2022-11-27T04:45:17;10.8;;;3.5;;
52342;SDS011;38277;51.972;4.624;2022-11-27T04:48:28;11.4;;;3.7;;
52342;SDS011;38277;51.972;4.624;2022-11-27T04:53:47;11.6;;;3.7;;
52342;SDS011;38277;51.972;4.624;2022-11-27T04:57:40;12.1;;;3.4;;
52342;SDS011;38277;51.972;4.624;2022-11-27T05:02:50;10.5;;;3.8;;
52342;SDS011;38277;51.972;4.624;2022-11-27T05:06:23;12.7;;;4.0;;
52342;SDS011;38277;51.972;4.624;2022-11-27T05:11:03;11.1;;;3.1;;
52342;SDS011;38277;51.972;4.624;2022-11-27T05:15:37;8.8;;;3.4;;
52342;SDS011;38277;51.972;4.624;2022-11-27T05:20:42;7.9;;;2.7;;
52342;SDS011;38277;51.972;4.624;2022-11-27T05:24:28;9.7;;;3.3;;
52342;SDS011;38277;51.972;4.624;2022-11-27T05:33:44;10.2;;;3.6;;
52342;SDS011;38277;51.972;4.624;2022-11-27T05:38:50;10.1;;;3.2;;
52342;SDS011;38277;51.972;4.624;2022-11-27T05:42:34;9.2;;;3.2;;
52342;SDS011;38277;51.972;4.624;2022-11-27T05:47:07;11.6;;;3.3;;
52342;SDS011;38277;51.972;4.624;2022-11-27T05:51:37;9.7;;;3.2;;
52342;SDS011;38277;51.972;4.624;2022-11-27T05:56:56;9.6;;;2.9;;
52342;SDS011;38277;51.972;4.624;2022-11-27T06:00:20;10.3;;;3.8;;
52342;SDS011;38277;51.972;4.624;2022-11-27T06:05:37;13.0;;;3.8;;
52342;SDS011;38277;51.972;4.624;2022-11-27T06:09:33;9.0;;;2.8;;
52342;SDS011;38277;51.972;4.624;2022-11-27T06:14:44;9.4;;;3.2;;
52342;SDS011;38277;51.972;4.624;2022-11-27T06:18:35;11.5;;;2.8;;
52342;SDS011;38277;51.972;4.624;2022-11-27T06:23:08;8.9;;;2.5;;
52342;SDS011;38277;51.972;4.624;2022-11-27T06:27:35;7.6;;;3.3;;
52342;SDS011;38277;51.972;4.624;2022-11-27T06:32:05;6.1;;;2.5;;
52342;SDS011;38277;51.972;4.624;2022-11-27T06:41:15;5.9;;;2.4;;
52342;SDS011;38277;51.972;4.624;2022-11-27T06:45:26;8.3;;;2.5;;
52342;SDS011;38277;51.972;4.624;2022-11-27T06:54:32;9.2;;;3.3;;
52342;SDS011;38277;51.972;4.624;2022-11-27T06:58:53;9.7;;;3.1;;
52342;SDS011;38277;51.972;4.624;2022-11-27T07:03:26;10.7;;;3.6;;
52342;SDS011;38277;51.972;4.624;2022-11-27T07:08:12;7.1;;;3.1;;
52342;SDS011;38277;51.972;4.624;2022-11-27T07:17:13;6.0;;;2.7;;
52342;SDS011;38277;51.972;4.624;2022-11-27T07:21:42;11.3;;;3.8;;
52342;SDS011;38277;51.972;4.624;2022-11-27T07:30:32;11.5;;;4.0;;
52342;SDS011;38277;51.972;4.624;2022-11-27T07:34:49;8.2;;;2.6;;
52342;SDS011;38277;51.972;4.624;2022-11-27T07:39:21;11.9;;;4.1;;
52342;SDS011;38277;51.972;4.624;2022-11-27T07:44:07;7.8;;;3.1;;
52342;SDS011;38277;51.972;4.624;2022-11-27T07:48:23;10.2;;;3.8;;
52342;SDS011;38277;51.972;4.624;2022-11-27T07:53:11;10.1;;;3.6;;
52342;SDS011;38277;51.972;4.624;2022-11-27T07:57:32;8.2;;;3.1;;
52342;SDS011;38277;51.972;4.624;2022-11-27T08:06:31;10.6;;;3.7;;
52342;SDS011;38277;51.972;4.624;2022-11-27T08:11:13;8.4;;;3.4;;
52342;SDS011;38277;51.972;4.624;2022-11-27T08:15:17;10.5;;;4.3;;
52342;SDS011;38277;51.972;4.624;2022-11-27T08:20:08;10.7;;;3.7;;
52342;SDS011;38277;51.972;4.624;2022-11-27T08:24:38;12.0;;;4.4;;
52342;SDS011;38277;51.972;4.624;2022-11-27T08:28:59;8.5;;;3.4;;
52342;SDS011;38277;51.972;4.624;2022-11-27T08:34:28;9.7;;;3.6;;
52342;SDS011;38277;51.972;4.624;2022-11-27T08:38:10;10.0;;;3.8;;
52342;SDS011;38277;51.972;4.624;2022-11-27T08:42:24;10.9;;;4.6;;
52342;SDS011;38277;51.972;4.624;2022-11-27T08:47:07;11.8;;;4.1;;
52342;SDS011;38277;51.972;4.624;2022-11-27T08:51:27;12.0;;;3.9;;
52342;SDS011;38277;51.972;4.624;2022-11-27T09:00:18;9.7;;;5.1;;
52342;SDS011;38277;51.972;4.624;2022-11-27T09:04:44;8.7;;;3.9;;
52342;SDS011;38277;51.972;4.624;2022-11-27T09:09:33;10.8;;;4.2;;
52342;SDS011;38277;51.972;4.624;2022-11-27T09:14:12;11.9;;;4.3;;
52342;SDS011;38277;51.972;4.624;2022-11-27T09:18:36;14.7;;;4.2;;
52342;SDS011;38277;51.972;4.624;2022-11-27T09:23:03;9.9;;;4.8;;
52342;SDS011;38277;51.972;4.624;2022-11-27T09:27:43;10.5;;;4.4;;
52342;SDS011;38277;51.972;4.624;2022-11-27T09:32:08;11.3;;;4.0;;
52342;SDS011;38277;51.972;4.624;2022-11-27T09:37:04;11.3;;;4.5;;
52342;SDS011;38277;51.972;4.624;2022-11-27T09:41:25;12.5;;;4.6;;
52342;SDS011;38277;51.972;4.624;2022-11-27T09:45:22;14.9;;;5.5;;
52342;SDS011;38277;51.972;4.624;2022-11-27T09:50:06;14.8;;;5.5;;
52342;SDS011;38277;51.972;4.624;2022-11-27T09:54:30;12.9;;;4.5;;
52342;SDS011;38277;51.972;4.624;2022-11-27T09:59:18;14.4;;;5.7;;
52342;SDS011;38277;51.972;4.624;2022-11-27T10:03:23;12.5;;;4.5;;
52342;SDS011;38277;51.972;4.624;2022-11-27T10:08:36;13.4;;;5.8;;
52342;SDS011;38277;51.972;4.624;2022-11-27T10:13:27;14.9;;;4.8;;
52342;SDS011;38277;51.972;4.624;2022-11-27T10:17:37;12.4;;;4.4;;
52342;SDS011;38277;51.972;4.624;2022-11-27T10:21:37;15.9;;;5.1;;
52342;SDS011;38277;51.972;4.624;2022-11-27T10:25:53;14.2;;;6.9;;
52342;SDS011;38277;51.972;4.624;2022-11-27T10:30:19;11.5;;;5.2;;
52342;SDS011;38277;51.972;4.624;2022-11-27T10:35:14;13.1;;;5.4;;
52342;SDS011;38277;51.972;4.624;2022-11-27T10:39:27;11.2;;;4.7;;
52342;SDS011;38277;51.972;4.624;2022-11-27T10:48:36;11.6;;;4.8;;
52342;SDS011;38277;51.972;4.624;2022-11-27T10:53:07;11.9;;;5.1;;
52342;SDS011;38277;51.972;4.624;2022-11-27T11:06:25;16.3;;;5.0;;
52342;SDS011;38277;51.972;4.624;2022-11-27T11:11:10;13.2;;;4.9;;
52342;SDS011;38277;51.972;4.624;2022-11-27T11:24:27;12.1;;;4.9;;
52342;SDS011;38277;51.972;4.624;2022-11-27T11:29:02;11.6;;;5.2;;
52342;SDS011;38277;51.972;4.624;2022-11-27T11:33:29;16.0;;;6.3;;
52342;SDS011;38277;51.972;4.624;2022-11-27T11:37:55;11.9;;;5.1;;
52342;SDS011;38277;51.972;4.624;2022-11-27T11:42:17;10.4;;;4.6;;
52342;SDS011;38277;51.972;4.624;2022-11-27T11:46:52;12.6;;;5.2;;
52342;SDS011;38277;51.972;4.624;2022-11-27T11:51:18;11.3;;;4.9;;
52342;SDS011;38277;51.972;4.624;2022-11-27T12:00:46;13.4;;;4.4;;
52342;SDS011;38277;51.972;4.624;2022-11-27T12:06:11;10.3;;;4.4;;
52342;SDS011;38277;51.972;4.624;2022-11-27T12:10:57;10.9;;;5.4;;
52342;SDS011;38277;51.972;4.624;2022-11-27T12:19:48;8.8;;;4.2;;
52342;SDS011;38277;51.972;4.624;2022-11-27T12:25:04;11.2;;;4.9;;
52342;SDS011;38277;51.972;4.624;2022-11-27T12:30:17;12.8;;;5.3;;
52342;SDS011;38277;51.972;4.624;2022-11-27T12:34:17;12.4;;;4.3;;
52342;SDS011;38277;51.972;4.624;2022-11-27T12:39:24;10.5;;;4.5;;
52342;SDS011;38277;51.972;4.624;2022-11-27T12:43:25;10.6;;;4.7;;
52342;SDS011;38277;51.972;4.624;2022-11-27T12:46:27;13.4;;;5.0;;
52342;SDS011;38277;51.972;4.624;2022-11-27T12:49:49;8.1;;;4.0;;
52342;SDS011;38277;51.972;4.624;2022-11-27T12:54:37;9.7;;;4.9;;
52342;SDS011;38277;51.972;4.624;2022-11-27T12:58:45;12.7;;;4.5;;
52342;SDS011;38277;51.972;4.624;2022-11-27T13:04:31;8.9;;;4.1;;
52342;SDS011;38277;51.972;4.624;2022-11-27T13:07:53;10.7;;;4.9;;
52342;SDS011;38277;51.972;4.624;2022-11-27T13:21:44;11.8;;;5.0;;
52342;SDS011;38277;51.972;4.624;2022-11-27T13:25:53;10.3;;;4.3;;
52342;SDS011;38277;51.972;4.624;2022-11-27T13:34:55;11.1;;;4.3;;
52342;SDS011;38277;51.972;4.624;2022-11-27T13:39:29;7.5;;;4.4;;
52342;SDS011;38277;51.972;4.624;2022-11-27T13:44:17;12.2;;;4.3;;
52342;SDS011;38277;51.972;4.624;2022-11-27T13:53:11;10.0;;;4.9;;
52342;SDS011;38277;51.972;4.624;2022-11-27T13:57:27;9.8;;;4.5;;
52342;SDS011;38277;51.972;4.624;2022-11-27T14:01:59;12.7;;;5.7;;
52342;SDS011;38277;51.972;4.624;2022-11-27T14:11:12;12.8;;;5.0;;
52342;SDS011;38277;51.972;4.624;2022-11-27T14:15:29;14.2;;;5.9;;
52342;SDS011;38277;51.972;4.624;2022-11-27T14:19:57;14.6;;;6.2;;
52342;SDS011;38277;51.972;4.624;2022-11-27T14:24:34;14.6;;;6.2;;
52342;SDS011;38277;51.972;4.624;2022-11-27T14:29:10;14.1;;;5.9;;
52342;SDS011;38277;51.972;4.624;2022-11-27T14:33:42;11.9;;;5.5;;
52342;SDS011;38277;51.972;4.624;2022-11-27T14:38:12;13.9;;;6.3;;
52342;SDS011;38277;51.972;4.624;2022-11-27T14:47:16;15.8;;;5.9;;
52342;SDS011;38277;51.972;4.624;2022-11-27T14:51:20;15.0;;;6.2;;
52342;SDS011;38277;51.972;4.624;2022-11-27T14:55:49;12.8;;;5.1;;
52342;SDS011;38277;51.972;4.624;2022-11-27T15:00:18;10.3;;;5.3;;
52342;SDS011;38277;51.972;4.624;2022-11-27T15:05:16;15.5;;;6.2;;
52342;SDS011;38277;51.972;4.624;2022-11-27T15:09:22;16.0;;;6.3;;
52342;SDS011;38277;51.972;4.624;2022-11-27T15:14:13;15.9;;;6.3;;
52342;SDS011;38277;51.972;4.624;2022-11-27T15:22:47;12.9;;;5.9;;
52342;SDS011;38277;51.972;4.624;2022-11-27T15:27:20;11.6;;;5.0;;
52342;SDS011;38277;51.972;4.624;2022-11-27T15:32:03;12.8;;;5.5;;
52342;SDS011;38277;51.972;4.624;2022-11-27T15:41:20;13.3;;;5.7;;
52342;SDS011;38277;51.972;4.624;2022-11-27T15:45:43;13.5;;;6.3;;
52342;SDS011;38277;51.972;4.624;2022-11-27T15:49:50;18.9;;;7.3;;
52342;SDS011;38277;51.972;4.624;2022-11-27T15:54:30;15.0;;;6.3;;
52342;SDS011;38277;51.972;4.624;2022-11-27T15:59:46;12.4;;;6.2;;
52342;SDS011;38277;51.972;4.624;2022-11-27T16:03:41;14.3;;;5.8;;
52342;SDS011;38277;51.972;4.624;2022-11-27T16:08:51;12.6;;;5.8;;
52342;SDS011;38277;51.972;4.624;2022-11-27T16:12:30;11.8;;;5.7;;
52342;SDS011;38277;51.972;4.624;2022-11-27T16:18:41;14.2;;;6.0;;
52342;SDS011;38277;51.972;4.624;2022-11-27T16:21:36;9.9;;;5.5;;
52342;SDS011;38277;51.972;4.624;2022-11-27T16:26:03;13.0;;;6.3;;
52342;SDS011;38277;51.972;4.624;2022-11-27T16:30:21;12.2;;;6.1;;
52342;SDS011;38277;51.972;4.624;2022-11-27T16:34:51;14.8;;;5.5;;
52342;SDS011;38277;51.972;4.624;2022-11-27T16:40:08;13.8;;;5.2;;
52342;SDS011;38277;51.972;4.624;2022-11-27T16:43:58;13.0;;;6.6;;
52342;SDS011;38277;51.972;4.624;2022-11-27T16:49:04;14.8;;;6.0;;
52342;SDS011;38277;51.972;4.624;2022-11-27T16:53:38;12.5;;;6.3;;
52342;SDS011;38277;51.972;4.624;2022-11-27T16:58:26;16.5;;;6.6;;
52342;SDS011;38277;51.972;4.624;2022-11-27T17:02:10;13.2;;;6.9;;
52342;SDS011;38277;51.972;4.624;2022-11-27T17:06:25;15.9;;;6.8;;
52342;SDS011;38277;51.972;4.624;2022-11-27T17:11:16;12.9;;;6.3;;
52342;SDS011;38277;51.972;4.624;2022-11-27T17:16:10;12.7;;;5.8;;
52342;SDS011;38277;51.972;4.624;2022-11-27T17:20:00;16.0;;;6.2;;
52342;SDS011;38277;51.972;4.624;2022-11-27T17:24:15;13.2;;;7.1;;
52342;SDS011;38277;51.972;4.624;2022-11-27T17:29:00;15.4;;;7.1;;
52342;SDS011;38277;51.972;4.624;2022-11-27T17:34:27;12.4;;;5.4;;
52342;SDS011;38277;51.972;4.624;2022-11-27T17:38:03;13.3;;;6.3;;
52342;SDS011;38277;51.972;4.624;2022-11-27T17:42:36;13.1;;;6.7;;
52342;SDS011;38277;51.972;4.624;2022-11-27T17:51:38;13.7;;;6.8;;
52342;SDS011;38277;51.972;4.624;2022-11-27T17:55:44;13.3;;;6.7;;
52342;SDS011;38277;51.972;4.624;2022-11-27T18:05:06;16.5;;;8.4;;
52342;SDS011;38277;51.972;4.624;2022-11-27T18:09:18;13.9;;;6.5;;
52342;SDS011;38277;51.972;4.624;2022-11-27T18:14:09;15.7;;;7.8;;
52342;SDS011;38277;51.972;4.624;2022-11-27T18:18:37;15.2;;;7.9;;
52342;SDS011;38277;51.972;4.624;2022-11-27T18:27:41;17.0;;;8.4;;
52342;SDS011;38277;51.972;4.624;2022-11-27T18:36:43;15.1;;;7.6;;
52342;SDS011;38277;51.972;4.624;2022-11-27T18:40:54;13.6;;;7.0;;
52342;SDS011;38277;51.972;4.624;2022-11-27T18:58:59;15.4;;;8.0;;
52342;SDS011;38277;51.972;4.624;2022-11-27T19:03:51;19.0;;;9.1;;
52342;SDS011;38277;51.972;4.624;2022-11-27T19:12:33;14.9;;;8.1;;
52342;SDS011;38277;51.972;4.624;2022-11-27T19:16:49;16.6;;;8.8;;
52342;SDS011;38277;51.972;4.624;2022-11-27T19:21:36;16.2;;;8.2;;
52342;SDS011;38277;51.972;4.624;2022-11-27T19:35:14;17.2;;;9.2;;
52342;SDS011;38277;51.972;4.624;2022-11-27T19:39:35;18.3;;;9.1;;
52342;SDS011;38277;51.972;4.624;2022-11-27T19:44:02;19.8;;;8.4;;
52342;SDS011;38277;51.972;4.624;2022-11-27T19:48:41;17.6;;;8.3;;
52342;SDS011;38277;51.972;4.624;2022-11-27T19:52:50;16.5;;;8.1;;
52342;SDS011;38277;51.972;4.624;2022-11-27T19:57:30;14.0;;;7.6;;
52342;SDS011;38277;51.972;4.624;2022-11-27T20:01:59;15.8;;;8.2;;
52342;SDS011;38277;51.972;4.624;2022-11-27T20:07:49;17.4;;;8.9;;
52342;SDS011;38277;51.972;4.624;2022-11-27T20:10:51;16.8;;;8.1;;
52342;SDS011;38277;51.972;4.624;2022-11-27T20:15:42;15.1;;;7.9;;
52342;SDS011;38277;51.972;4.624;2022-11-27T20:19:44;16.6;;;8.0;;
52342;SDS011;38277;51.972;4.624;2022-11-27T20:24:36;14.6;;;7.3;;
52342;SDS011;38277;51.972;4.624;2022-11-27T20:28:47;16.5;;;6.9;;
52342;SDS011;38277;51.972;4.624;2022-11-27T20:34:06;15.3;;;7.8;;
52342;SDS011;38277;51.972;4.624;2022-11-27T20:38:06;15.2;;;8.7;;
52342;SDS011;38277;51.972;4.624;2022-11-27T20:42:45;16.4;;;8.5;;
52342;SDS011;38277;51.972;4.624;2022-11-27T20:46:53;17.2;;;8.3;;
52342;SDS011;38277;51.972;4.624;2022-11-27T20:53:04;18.3;;;8.5;;
52342;SDS011;38277;51.972;4.624;2022-11-27T21:00:45;17.9;;;8.1;;
52342;SDS011;38277;51.972;4.624;2022-11-27T21:04:58;13.9;;;7.5;;
52342;SDS011;38277;51.972;4.624;2022-11-27T21:10:33;14.3;;;8.1;;
52342;SDS011;38277;51.972;4.624;2022-11-27T21:13:47;16.5;;;8.3;;
52342;SDS011;38277;51.972;4.624;2022-11-27T21:18:26;14.9;;;7.5;;
52342;SDS011;38277;51.972;4.624;2022-11-27T21:22:53;13.8;;;7.9;;
52342;SDS011;38277;51.972;4.624;2022-11-27T21:31:49;18.5;;;9.1;;
52342;SDS011;38277;51.972;4.624;2022-11-27T21:36:24;17.8;;;8.9;;
52342;SDS011;38277;51.972;4.624;2022-11-27T21:41:03;15.3;;;8.5;;
52342;SDS011;38277;51.972;4.624;2022-11-27T21:46:07;16.8;;;9.2;;
52342;SDS011;38277;51.972;4.624;2022-11-27T21:49:48;14.9;;;8.3;;
52342;SDS011;38277;51.972;4.624;2022-11-27T21:54:16;14.6;;;7.9;;
52342;SDS011;38277;51.972;4.624;2022-11-27T21:58:48;16.4;;;9.1;;
52342;SDS011;38277;51.972;4.624;2022-11-27T22:03:19;17.9;;;9.4;;
52342;SDS011;38277;51.972;4.624;2022-11-27T22:07:47;19.4;;;9.5;;
52342;SDS011;38277;51.972;4.624;2022-11-27T22:12:44;16.1;;;8.6;;
52342;SDS011;38277;51.972;4.624;2022-11-27T22:16:56;17.8;;;9.9;;
52342;SDS011;38277;51.972;4.624;2022-11-27T22:30:17;15.4;;;7.6;;
52342;SDS011;38277;51.972;4.624;2022-11-27T22:34:54;17.5;;;9.6;;
52342;SDS011;38277;51.972;4.624;2022-11-27T22:39:43;15.6;;;8.1;;
52342;SDS011;38277;51.972;4.624;2022-11-27T22:44:09;16.4;;;8.8;;
52342;SDS011;38277;51.972;4.624;2022-11-27T22:59:12;17.3;;;9.8;;
52342;SDS011;38277;51.972;4.624;2022-11-27T23:19:47;19.4;;;9.0;;
52342;SDS011;38277;51.972;4.624;2022-11-27T23:24:33;13.9;;;8.8;;
52342;SDS011;38277;51.972;4.624;2022-11-27T23:28:55;14.8;;;7.8;;
52342;SDS011;38277;51.972;4.624;2022-11-27T23:34:20;16.7;;;8.8;;
52342;SDS011;38277;51.972;4.624;2022-11-27T23:39:33;16.1;;;8.9;;
52342;SDS011;38277;51.972;4.624;2022-11-27T23:42:24;15.3;;;9.1;;
52342;SDS011;38277;51.972;4.624;2022-11-27T23:46:50;12.6;;;7.6;;
